Airport View

Enter AWOS ICAO identifier for current METAR.

ex. KFNL

KIBM 210035Z AUTO 18005KT 10SM CLR 23/03 A2972 RMK AO2 T02340031

21 Sep 2019 00:44

Frequency: 118.075

Phone: 308-235-2516

Other Area AWOS: K82V - KSNY - KSTK - KBFF

TAF KSNY 202323Z 2100/2124 15018G26KT P6SM VCSH SCT070 FM210600 32012KT P6SM SCT100 FM211300 31020G28KT P6SM SKC